Time,TemperatureF,DewpointF,PressureIn,WindDirection,WindDirectionDegrees,WindSpeedMPH,WindSpeedGustMPH,Humidity,HourlyPrecipIn,Conditions,Clouds,dailyrainin,SolarRadiationWatts/m^2,SoftwareType,DateUTC
2013-05-08 00:00:00,71.8,68.1,29.90,South,183,7.2,19.2,88,0.00,,---,0.00,0.00,VWS V14.01,2013-05-08 05:00:00,
2013-05-08 00:01:00,71.8,68.1,29.90,SSE,158,12.2,19.2,88,0.00,,---,0.00,,VWS V14.01,2013-05-08 05:01:00,
2013-05-08 00:05:00,71.6,67.9,29.90,SSE,155,6.2,16.2,88,0.00,,---,0.00,0.00,VWS V14.01,2013-05-08 05:05:00,
2013-05-08 00:06:00,71.6,67.9,29.90,SSE,155,8.2,8.2,88,0.00,,---,0.00,,VWS V14.01,2013-05-08 05:06:00,
2013-05-08 00:10:00,71.6,67.9,29.90,SE,142,5.2,19.2,88,0.00,,---,0.00,0.00,VWS V14.01,2013-05-08 05:10:00,
2013-05-08 00:11:00,71.6,67.9,29.90,SE,142,5.2,19.2,88,0.00,,---,0.00,,VWS V14.01,2013-05-08 05:11:00,
2013-05-08 00:15:00,71.6,67.5,29.92,SSE,158,10.2,19.2,87,0.00,,---,0.00,0.00,VWS V14.01,2013-05-08 05:15:00,
2013-05-08 00:16:00,71.6,67.9,29.92,SSE,161,11.2,11.2,88,0.00,,---,0.00,,VWS V14.01,2013-05-08 05:16:00,
2013-05-08 00:20:00,71.6,67.5,29.92,SSE,152,13.2,16.2,87,0.00,,---,0.00,0.00,VWS V14.01,2013-05-08 05:20:00,
2013-05-08 00:21:00,71.6,67.5,29.92,SSE,152,13.2,16.2,87,0.00,,---,0.00,,VWS V14.01,2013-05-08 05:21:00,
2013-05-08 00:25:00,71.6,67.5,29.92,SE,146,2.2,15.2,87,0.00,,---,0.00,0.00,VWS V14.01,2013-05-08 05:25:00,
2013-05-08 00:26:00,71.6,67.5,29.92,SE,146,2.2,15.2,87,0.00,,---,0.00,,VWS V14.01,2013-05-08 05:26:00,
2013-05-08 00:30:00,71.5,67.4,29.92,SSE,155,13.2,19.2,87,0.00,,---,0.00,0.00,VWS V14.01,2013-05-08 05:30:00,
2013-05-08 00:31:00,71.5,67.4,29.92,SSE,155,13.2,19.2,87,0.00,,---,0.00,,VWS V14.01,2013-05-08 05:31:00,
2013-05-08 00:35:00,71.5,67.4,29.92,South,169,9.2,13.2,87,0.00,,---,0.00,0.00,VWS V14.01,2013-05-08 05:35:00,
2013-05-08 00:36:00,71.5,67.4,29.92,South,169,9.2,13.2,87,0.00,,---,0.00,,VWS V14.01,2013-05-08 05:36:00,
2013-05-08 00:40:00,71.5,67.8,29.92,SSE,151,7.2,17.2,88,0.00,,---,0.00,0.00,VWS V14.01,2013-05-08 05:40:00,
2013-05-08 00:41:00,71.5,67.8,29.92,SSE,151,5.2,7.2,88,0.00,,---,0.00,,VWS V14.01,2013-05-08 05:41:00,
2013-05-08 00:45:00,71.5,67.8,29.92,SSE,157,4.2,13.2,88,0.00,,---,0.00,0.00,VWS V14.01,2013-05-08 05:45:00,
2013-05-08 00:46:00,71.5,67.8,29.92,SSE,157,4.2,13.2,88,0.00,,---,0.00,,VWS V14.01,2013-05-08 05:46:00,
2013-05-08 00:50:00,71.3,67.6,29.92,South,189,6.2,12.2,88,0.00,,---,0.00,0.00,VWS V14.01,2013-05-08 05:50:00,
2013-05-08 00:51:00,71.3,67.6,29.92,South,175,6.2,12.2,88,0.00,,---,0.00,,VWS V14.01,2013-05-08 05:51:00,
2013-05-08 00:55:00,71.3,67.6,29.92,SE,146,8.2,13.2,88,0.00,,---,0.00,0.00,VWS V14.01,2013-05-08 05:55:00,
2013-05-08 00:56:00,71.3,67.6,29.92,SE,146,8.2,13.2,88,0.00,,---,0.00,,VWS V14.01,2013-05-08 05:56:00,
2013-05-08 01:00:00,71.3,67.6,29.92,SSW,195,4.2,14.2,88,0.00,,---,0.00,0.00,VWS V14.01,2013-05-08 06:00:00,
2013-05-08 01:01:00,71.3,67.6,29.92,SSW,195,4.2,14.2,88,0.00,,---,0.00,,VWS V14.01,2013-05-08 06:01:00,
2013-05-08 01:05:00,71.3,67.6,29.92,SSE,153,17.2,17.2,88,0.00,,---,0.00,0.00,VWS V14.01,2013-05-08 06:05:00,
2013-05-08 01:06:00,71.3,67.6,29.92,SSE,153,17.2,17.2,88,0.00,,---,0.00,,VWS V14.01,2013-05-08 06:06:00,
2013-05-08 01:10:00,71.5,67.8,29.92,SE,139,10.2,17.2,88,0.00,,---,0.00,0.00,VWS V14.01,2013-05-08 06:10:00,
2013-05-08 01:11:00,71.5,67.8,29.92,SE,139,10.2,17.2,88,0.00,,---,0.00,,VWS V14.01,2013-05-08 06:11:00,
2013-05-08 01:15:00,71.5,67.8,29.92,SE,136,3.2,10.2,88,0.00,,---,0.00,0.00,VWS V14.01,2013-05-08 06:15:00,
2013-05-08 01:16:00,71.5,67.8,29.92,SE,136,4.2,10.2,88,0.00,,---,0.00,,VWS V14.01,2013-05-08 06:16:00,
2013-05-08 01:20:00,71.5,67.8,29.92,SSW,202,4.2,7.2,88,0.00,,---,0.00,0.00,VWS V14.01,2013-05-08 06:20:00,
2013-05-08 01:21:00,71.5,67.8,29.92,SSW,202,4.2,7.2,88,0.00,,---,0.00,,VWS V14.01,2013-05-08 06:21:00,
2013-05-08 01:25:00,71.1,67.4,29.92,South,171,3.2,8.2,88,0.00,,---,0.00,0.00,VWS V14.01,2013-05-08 06:25:00,
2013-05-08 01:26:00,71.1,67.4,29.92,South,171,3.2,8.2,88,0.00,,---,0.00,,VWS V14.01,2013-05-08 06:26:00,
2013-05-08 01:30:00,71.1,67.4,29.92,SSE,153,5.2,13.2,88,0.00,,---,0.00,0.00,VWS V14.01,2013-05-08 06:30:00,
2013-05-08 01:31:00,71.1,67.4,29.92,SSE,153,7.2,13.2,88,0.00,,---,0.00,,VWS V14.01,2013-05-08 06:31:00,
2013-05-08 01:35:00,70.9,67.5,29.92,SSE,162,2.2,8.2,89,0.00,,---,0.00,0.00,VWS V14.01,2013-05-08 06:35:00,
2013-05-08 01:36:00,70.9,67.5,29.92,SSE,162,3.2,8.2,89,0.00,,---,0.00,,VWS V14.01,2013-05-08 06:36:00,
2013-05-08 01:40:00,71.1,67.7,29.92,SE,140,7.2,12.2,89,0.00,,---,0.00,0.00,VWS V14.01,2013-05-08 06:40:00,
2013-05-08 01:41:00,71.1,67.7,29.92,SSE,149,7.2,12.2,89,0.00,,---,0.00,,VWS V14.01,2013-05-08 06:41:00,
2013-05-08 01:45:00,71.1,67.7,29.91,SSE,150,13.2,13.2,89,0.00,,---,0.00,0.00,VWS V14.01,2013-05-08 06:45:00,
2013-05-08 01:46:00,71.1,67.7,29.91,SSE,148,10.2,12.2,89,0.00,,---,0.00,,VWS V14.01,2013-05-08 06:46:00,
2013-05-08 01:50:00,71.1,67.7,29.91,SSE,148,2.2,13.2,89,0.00,,---,0.00,0.00,VWS V14.01,2013-05-08 06:50:00,
2013-05-08 01:51:00,71.1,67.7,29.91,SSE,148,2.2,13.2,89,0.00,,---,0.00,,VWS V14.01,2013-05-08 06:51:00,
2013-05-08 01:55:00,70.9,67.8,29.91,SSE,159,1.2,8.2,90,0.00,,---,0.00,0.00,VWS V14.01,2013-05-08 06:55:00,
2013-05-08 01:56:00,71.1,68.0,29.91,SSE,159,2.2,8.2,90,0.00,,---,0.00,,VWS V14.01,2013-05-08 06:56:00,
2013-05-08 02:00:00,70.9,67.8,29.90,SSE,162,7.2,11.2,90,0.00,,---,0.00,0.00,VWS V14.01,2013-05-08 07:00:00,
2013-05-08 02:01:00,70.9,67.8,29.90,South,171,8.2,11.2,90,0.00,,---,0.00,,VWS V14.01,2013-05-08 07:01:00,
2013-05-08 02:05:00,70.9,67.8,29.90,SSE,153,7.2,12.2,90,0.00,,---,0.00,0.00,VWS V14.01,2013-05-08 07:05:00,
2013-05-08 02:06:00,70.9,67.8,29.90,SE,144,7.2,12.2,90,0.00,,---,0.00,,VWS V14.01,2013-05-08 07:06:00,
2013-05-08 02:10:00,70.9,67.8,29.90,SSE,164,4.2,17.2,90,0.00,,---,0.00,0.00,VWS V14.01,2013-05-08 07:10:00,
2013-05-08 02:11:00,70.9,67.8,29.90,SSE,164,4.2,17.2,90,0.00,,---,0.00,,VWS V14.01,2013-05-08 07:11:00,
2013-05-08 02:15:00,71.1,68.0,29.90,SSW,211,4.2,13.2,90,0.00,,---,0.00,0.00,VWS V14.01,2013-05-08 07:15:00,
2013-05-08 02:16:00,70.9,67.8,29.90,SSW,211,8.2,13.2,90,0.00,,---,0.00,,VWS V14.01,2013-05-08 07:16:00,
2013-05-08 02:20:00,70.9,67.8,29.90,SE,140,3.2,12.2,90,0.00,,---,0.00,0.00,VWS V14.01,2013-05-08 07:20:00,
2013-05-08 02:21:00,70.9,67.8,29.90,SE,140,4.2,12.2,90,0.00,,---,0.00,,VWS V14.01,2013-05-08 07:21:00,
2013-05-08 02:25:00,70.9,67.8,29.90,South,178,4.2,12.2,90,0.00,,---,0.00,0.00,VWS V14.01,2013-05-08 07:25:00,
2013-05-08 02:26:00,70.9,67.8,29.90,South,179,7.2,12.2,90,0.00,,---,0.00,,VWS V14.01,2013-05-08 07:26:00,
2013-05-08 02:30:00,70.9,67.8,29.90,SSE,150,5.2,13.2,90,0.00,,---,0.00,0.00,VWS V14.01,2013-05-08 07:30:00,
2013-05-08 02:31:00,70.9,67.8,29.90,SSE,150,5.2,13.2,90,0.00,,---,0.00,,VWS V14.01,2013-05-08 07:31:00,
2013-05-08 02:35:00,71.1,68.0,29.90,SSW,195,5.2,11.2,90,0.00,,---,0.00,0.00,VWS V14.01,2013-05-08 07:35:00,
2013-05-08 02:36:00,71.1,68.0,29.90,SW,214,3.2,11.2,90,0.00,,---,0.00,,VWS V14.01,2013-05-08 07:36:00,
2013-05-08 02:40:00,71.1,68.0,29.90,SSE,151,1.2,10.2,90,0.00,,---,0.00,0.00,VWS V14.01,2013-05-08 07:40:00,
2013-05-08 02:41:00,71.1,68.0,29.90,SSE,151,1.2,10.2,90,0.00,,---,0.00,,VWS V14.01,2013-05-08 07:41:00,
2013-05-08 02:45:00,71.1,68.0,29.90,SSW,194,3.2,12.2,90,0.00,,---,0.00,0.00,VWS V14.01,2013-05-08 07:45:00,
2013-05-08 02:46:00,71.1,68.0,29.90,SSW,194,10.2,12.2,90,0.00,,---,0.00,,VWS V14.01,2013-05-08 07:46:00,
2013-05-08 02:50:00,71.3,68.2,29.90,SSE,160,4.2,13.2,90,0.00,,---,0.00,0.00,VWS V14.01,2013-05-08 07:50:00,
2013-05-08 02:51:00,71.3,68.2,29.90,SSE,160,5.2,13.2,90,0.00,,---,0.00,,VWS V14.01,2013-05-08 07:51:00,
2013-05-08 02:55:00,71.3,68.2,29.90,SSE,161,11.2,14.2,90,0.00,,---,0.00,0.00,VWS V14.01,2013-05-08 07:55:00,
2013-05-08 02:56:00,71.3,68.2,29.90,South,181,8.2,14.2,90,0.00,,---,0.00,,VWS V14.01,2013-05-08 07:56:00,
2013-05-08 03:00:00,71.3,68.2,29.89,SSE,154,7.2,14.2,90,0.00,,---,0.00,0.00,VWS V14.01,2013-05-08 08:00:00,
2013-05-08 03:01:00,71.3,68.2,29.89,SE,140,8.2,14.2,90,0.00,,---,0.00,,VWS V14.01,2013-05-08 08:01:00,
2013-05-08 03:05:00,71.3,68.2,29.89,SE,144,8.2,11.2,90,0.00,,---,0.00,0.00,VWS V14.01,2013-05-08 08:05:00,
2013-05-08 03:06:00,71.3,68.2,29.89,SE,145,5.2,11.2,90,0.00,,---,0.00,,VWS V14.01,2013-05-08 08:06:00,
2013-05-08 03:10:00,71.5,68.4,29.89,SSE,150,5.2,14.2,90,0.00,,---,0.00,0.00,VWS V14.01,2013-05-08 08:10:00,
2013-05-08 03:11:00,71.5,68.4,29.89,SSE,155,8.2,14.2,90,0.00,,---,0.00,,VWS V14.01,2013-05-08 08:11:00,
2013-05-08 03:15:00,71.3,68.2,29.89,SSE,155,4.2,15.2,90,0.00,,---,0.00,0.00,VWS V14.01,2013-05-08 08:15:00,
2013-05-08 03:16:00,71.3,68.2,29.89,SSE,155,6.2,15.2,90,0.00,,---,0.00,,VWS V14.01,2013-05-08 08:16:00,
2013-05-08 03:20:00,71.3,68.2,29.89,SSE,153,5.2,13.2,90,0.00,,---,0.00,0.00,VWS V14.01,2013-05-08 08:20:00,
2013-05-08 03:21:00,71.3,68.2,29.89,SSE,150,6.2,13.2,90,0.00,,---,0.00,,VWS V14.01,2013-05-08 08:21:00,
2013-05-08 03:25:00,71.3,68.2,29.89,South,169,6.2,17.2,90,0.00,,---,0.00,0.00,VWS V14.01,2013-05-08 08:25:00,
2013-05-08 03:26:00,71.3,68.2,29.89,SSE,154,7.2,17.2,90,0.00,,---,0.00,,VWS V14.01,2013-05-08 08:26:00,
2013-05-08 03:30:00,71.5,68.4,29.88,SSE,153,5.2,14.2,90,0.00,,---,0.00,0.00,VWS V14.01,2013-05-08 08:30:00,
2013-05-08 03:31:00,71.5,68.4,29.88,SSE,159,4.2,14.2,90,0.00,,---,0.00,,VWS V14.01,2013-05-08 08:31:00,
2013-05-08 03:35:00,71.3,68.2,29.88,SSW,205,4.2,13.2,90,0.00,,---,0.00,0.00,VWS V14.01,2013-05-08 08:35:00,
2013-05-08 03:36:00,71.3,68.2,29.88,SSW,208,6.2,13.2,90,0.00,,---,0.00,,VWS V14.01,2013-05-08 08:36:00,
2013-05-08 03:40:00,71.3,68.2,29.88,SSW,207,4.2,8.2,90,0.00,,---,0.00,0.00,VWS V14.01,2013-05-08 08:40:00,
2013-05-08 03:41:00,71.3,68.2,29.88,South,173,5.2,8.2,90,0.00,,---,0.00,,VWS V14.01,2013-05-08 08:41:00,
2013-05-08 03:45:00,71.3,68.2,29.87,South,171,5.2,15.2,90,0.00,,---,0.00,0.00,VWS V14.01,2013-05-08 08:45:00,
2013-05-08 03:46:00,71.3,68.2,29.87,SE,146,7.2,15.2,90,0.00,,---,0.00,,VWS V14.01,2013-05-08 08:46:00,
2013-05-08 03:50:00,71.3,68.2,29.87,SE,126,10.2,15.2,90,0.00,,---,0.00,0.00,VWS V14.01,2013-05-08 08:50:00,
2013-05-08 03:51:00,71.3,68.2,29.87,South,169,8.2,15.2,90,0.00,,---,0.00,,VWS V14.01,2013-05-08 08:51:00,
2013-05-08 03:55:00,71.1,68.0,29.87,SSE,163,11.2,15.2,90,0.00,,---,0.00,0.00,VWS V14.01,2013-05-08 08:55:00,
2013-05-08 03:56:00,71.1,68.0,29.87,SE,146,12.2,15.2,90,0.00,,---,0.00,,VWS V14.01,2013-05-08 08:56:00,
2013-05-08 04:00:00,71.1,68.3,29.87,SE,135,6.2,11.2,91,0.00,,---,0.00,0.00,VWS V14.01,2013-05-08 09:00:00,
2013-05-08 04:01:00,71.1,68.3,29.87,SSE,161,11.2,11.2,91,0.00,,---,0.00,,VWS V14.01,2013-05-08 09:01:00,
2013-05-08 04:05:00,71.1,68.3,29.87,SSE,165,10.2,11.2,91,0.00,,---,0.00,0.00,VWS V14.01,2013-05-08 09:05:00,
2013-05-08 04:06:00,71.1,68.3,29.87,South,169,4.2,8.2,91,0.00,,---,0.00,,VWS V14.01,2013-05-08 09:06:00,
2013-05-08 04:10:00,71.1,68.3,29.87,South,187,3.2,13.2,91,0.00,,---,0.00,0.00,VWS V14.01,2013-05-08 09:10:00,
2013-05-08 04:11:00,71.1,68.3,29.87,SSW,203,5.2,13.2,91,0.00,,---,0.00,,VWS V14.01,2013-05-08 09:11:00,
2013-05-08 04:15:00,71.1,68.3,29.87,SSE,159,4.2,11.2,91,0.00,,---,0.00,0.00,VWS V14.01,2013-05-08 09:15:00,
2013-05-08 04:16:00,71.1,68.3,29.87,SSE,158,4.2,11.2,91,0.00,,---,0.00,,VWS V14.01,2013-05-08 09:16:00,
2013-05-08 04:20:00,71.1,68.7,29.87,SSE,165,2.2,12.2,92,0.00,,---,0.00,0.00,VWS V14.01,2013-05-08 09:20:00,
2013-05-08 04:21:00,71.1,68.7,29.87,SSE,165,7.2,12.2,92,0.00,,---,0.00,,VWS V14.01,2013-05-08 09:21:00,
2013-05-08 04:25:00,71.1,68.7,29.87,SSE,165,4.2,10.2,92,0.00,,---,0.00,0.00,VWS V14.01,2013-05-08 09:25:00,
2013-05-08 04:26:00,71.1,68.7,29.87,SSE,164,3.2,10.2,92,0.00,,---,0.00,,VWS V14.01,2013-05-08 09:26:00,
2013-05-08 04:30:00,71.1,68.7,29.87,South,171,8.2,15.2,92,0.00,,---,0.00,0.00,VWS V14.01,2013-05-08 09:30:00,
2013-05-08 04:31:00,71.1,68.7,29.87,SSE,157,5.2,15.2,92,0.00,,---,0.00,,VWS V14.01,2013-05-08 09:31:00,
2013-05-08 04:35:00,71.1,68.7,29.87,South,175,3.2,11.2,92,0.00,,---,0.00,0.00,VWS V14.01,2013-05-08 09:35:00,
2013-05-08 04:36:00,71.1,68.7,29.87,South,175,1.2,11.2,92,0.00,,---,0.00,,VWS V14.01,2013-05-08 09:36:00,
2013-05-08 04:40:00,71.3,68.9,29.87,SE,135,11.2,12.2,92,0.00,,---,0.00,0.00,VWS V14.01,2013-05-08 09:40:00,
2013-05-08 04:41:00,71.3,68.9,29.87,South,179,3.2,10.2,92,0.00,,---,0.00,,VWS V14.01,2013-05-08 09:41:00,
2013-05-08 04:45:00,71.3,68.5,29.88,SE,142,11.2,12.2,91,0.00,,---,0.00,0.00,VWS V14.01,2013-05-08 09:45:00,
2013-05-08 04:46:00,71.3,68.5,29.88,SSE,148,6.2,12.2,91,0.00,,---,0.00,,VWS V14.01,2013-05-08 09:46:00,
2013-05-08 04:50:00,71.3,68.5,29.88,SSE,157,4.2,13.2,91,0.00,,---,0.00,0.00,VWS V14.01,2013-05-08 09:50:00,
2013-05-08 04:51:00,71.3,68.5,29.88,SSE,157,6.2,13.2,91,0.00,,---,0.00,,VWS V14.01,2013-05-08 09:51:00,
2013-05-08 04:55:00,71.3,68.2,29.88,SE,146,5.2,13.2,90,0.00,,---,0.00,0.00,VWS V14.01,2013-05-08 09:55:00,
2013-05-08 04:56:00,71.3,68.2,29.88,SSE,151,7.2,13.2,90,0.00,,---,0.00,,VWS V14.01,2013-05-08 09:56:00,
2013-05-08 05:00:00,71.3,68.5,29.88,South,172,2.2,11.2,91,0.00,,---,0.00,0.00,VWS V14.01,2013-05-08 10:00:00,
2013-05-08 05:01:00,71.3,68.5,29.88,SSE,167,5.2,11.2,91,0.00,,---,0.00,,VWS V14.01,2013-05-08 10:01:00,
2013-05-08 05:05:00,71.1,68.3,29.88,SSE,161,7.2,13.2,91,0.00,,---,0.00,0.00,VWS V14.01,2013-05-08 10:05:00,
2013-05-08 05:06:00,71.1,68.3,29.88,SSE,155,7.2,12.2,91,0.00,,---,0.00,,VWS V14.01,2013-05-08 10:06:00,
2013-05-08 05:10:00,71.3,68.5,29.88,South,173,6.2,11.2,91,0.00,,---,0.00,,VWS V14.01,2013-05-08 10:10:00,
2013-05-08 05:15:00,71.3,68.5,29.88,SSE,152,5.2,10.2,91,0.00,,---,0.00,,VWS V14.01,2013-05-08 10:15:00,
2013-05-08 05:20:00,71.1,68.3,29.88,South,179,1.2,8.2,91,0.00,,---,0.00,,VWS V14.01,2013-05-08 10:20:00,
2013-05-08 05:25:00,70.9,68.2,29.88,SSE,168,4.2,12.2,91,0.00,,---,0.00,,VWS V14.01,2013-05-08 10:25:00,
2013-05-08 05:30:00,70.9,68.2,29.89,South,178,6.2,8.2,91,0.00,,---,0.00,,VWS V14.01,2013-05-08 10:30:00,
2013-05-08 05:35:00,70.9,68.2,29.89,SW,221,1.2,8.2,91,0.00,,---,0.00,,VWS V14.01,2013-05-08 10:35:00,
2013-05-08 05:40:00,71.1,68.3,29.89,SSE,147,5.2,8.2,91,0.00,,---,0.00,,VWS V14.01,2013-05-08 10:40:00,
2013-05-08 05:45:00,71.1,68.3,29.89,SSE,148,3.2,12.2,91,0.00,,---,0.00,,VWS V14.01,2013-05-08 10:45:00,
2013-05-08 05:50:00,71.3,68.9,29.89,South,173,6.2,10.2,92,0.00,,---,0.00,,VWS V14.01,2013-05-08 10:50:00,
2013-05-08 05:55:00,71.3,68.5,29.89,SSE,153,7.2,11.2,91,0.00,,---,0.00,,VWS V14.01,2013-05-08 10:55:00,
2013-05-08 06:00:00,71.1,68.3,29.90,SSE,149,2.2,6.2,91,0.00,,---,0.00,,VWS V14.01,2013-05-08 11:00:00,
2013-05-08 06:05:00,71.3,68.5,29.90,SSE,149,6.2,7.2,91,0.00,,---,0.00,,VWS V14.01,2013-05-08 11:05:00,
2013-05-08 06:10:00,71.1,68.3,29.90,South,176,5.2,8.2,91,0.00,,---,0.00,,VWS V14.01,2013-05-08 11:10:00,
2013-05-08 06:15:00,71.1,68.3,29.90,SE,142,10.2,13.2,91,0.00,,---,0.00,,VWS V14.01,2013-05-08 11:15:00,
2013-05-08 06:20:00,71.1,68.3,29.90,South,172,7.2,10.2,91,0.00,,---,0.00,,VWS V14.01,2013-05-08 11:20:00,
2013-05-08 06:25:00,71.1,68.0,29.90,SE,134,4.2,11.2,90,0.00,,---,0.00,,VWS V14.01,2013-05-08 11:25:00,
2013-05-08 06:30:00,71.3,68.2,29.90,SE,139,4.2,11.2,90,0.00,,---,0.00,,VWS V14.01,2013-05-08 11:30:00,
2013-05-08 06:35:00,71.1,68.0,29.90,South,170,4.2,12.2,90,0.00,,---,0.00,,VWS V14.01,2013-05-08 11:35:00,
2013-05-08 06:40:00,71.1,68.0,29.90,SSE,155,7.2,12.2,90,0.00,,---,0.00,,VWS V14.01,2013-05-08 11:40:00,
2013-05-08 06:45:00,71.1,68.0,29.91,SE,143,3.2,10.2,90,0.00,,---,0.00,,VWS V14.01,2013-05-08 11:45:00,
2013-05-08 06:50:00,71.1,68.3,29.91,SE,132,5.2,11.2,91,0.00,,---,0.00,,VWS V14.01,2013-05-08 11:50:00,
2013-05-08 06:55:00,71.3,68.5,29.91,SE,144,3.2,11.2,91,0.00,,---,0.00,,VWS V14.01,2013-05-08 11:55:00,
2013-05-08 07:00:00,71.3,68.5,29.91,SSE,150,4.2,10.2,91,0.00,,---,0.00,,VWS V14.01,2013-05-08 12:00:00,
2013-05-08 07:05:00,71.1,68.3,29.91,SE,141,4.2,12.2,91,0.00,,---,0.00,,VWS V14.01,2013-05-08 12:05:00,
2013-05-08 07:10:00,71.1,68.3,29.91,South,183,3.2,10.2,91,0.00,,---,0.00,,VWS V14.01,2013-05-08 12:10:00,
2013-05-08 07:15:00,71.3,68.5,29.92,SE,134,7.2,12.2,91,0.00,,---,0.00,,VWS V14.01,2013-05-08 12:15:00,
2013-05-08 07:20:00,71.3,68.5,29.92,SSE,148,7.2,11.2,91,0.00,,---,0.00,,VWS V14.01,2013-05-08 12:20:00,
2013-05-08 07:25:00,71.3,68.5,29.92,SE,134,4.2,11.2,91,0.00,,---,0.00,,VWS V14.01,2013-05-08 12:25:00,
2013-05-08 07:30:00,71.5,68.7,29.92,SSE,165,5.2,10.2,91,0.00,,---,0.00,,VWS V14.01,2013-05-08 12:30:00,
2013-05-08 07:35:00,71.5,68.4,29.92,SSE,161,4.2,11.2,90,0.00,,---,0.00,,VWS V14.01,2013-05-08 12:35:00,
2013-05-08 07:40:00,71.6,68.5,29.92,SSE,160,6.2,11.2,90,0.00,,---,0.00,,VWS V14.01,2013-05-08 12:40:00,
2013-05-08 07:45:00,71.6,68.5,29.93,South,172,5.2,11.2,90,0.00,,---,0.00,,VWS V14.01,2013-05-08 12:45:00,
2013-05-08 07:50:00,71.8,68.7,29.93,South,188,3.2,10.2,90,0.00,,---,0.00,,VWS V14.01,2013-05-08 12:50:00,
2013-05-08 07:55:00,72.0,68.6,29.93,SSE,151,5.2,12.2,89,0.00,,---,0.00,,VWS V14.01,2013-05-08 12:55:00,
2013-05-08 08:00:00,72.1,68.3,29.93,SE,129,1.2,11.2,88,0.00,,---,0.00,,VWS V14.01,2013-05-08 13:00:00,
2013-05-08 08:05:00,72.3,68.6,29.93,SE,140,7.2,11.2,88,0.00,,---,0.00,,VWS V14.01,2013-05-08 13:05:00,
2013-05-08 08:10:00,72.5,68.8,29.93,South,169,6.2,11.2,88,0.00,,---,0.00,,VWS V14.01,2013-05-08 13:10:00,
2013-05-08 08:15:00,73.0,69.2,29.93,SSE,157,6.2,12.2,88,0.00,,---,0.00,,VWS V14.01,2013-05-08 13:15:00,
2013-05-08 08:20:00,73.5,68.7,29.93,SE,125,6.2,13.2,85,0.00,,---,0.00,,VWS V14.01,2013-05-08 13:20:00,
2013-05-08 08:25:00,74.2,68.7,29.93,SE,144,8.2,13.2,83,0.00,,---,0.00,,VWS V14.01,2013-05-08 13:25:00,
2013-05-08 08:30:00,74.0,68.2,29.93,SSE,163,5.2,14.2,82,0.00,,---,0.00,,VWS V14.01,2013-05-08 13:30:00,
2013-05-08 08:35:00,73.9,68.1,29.93,SSE,154,10.2,14.2,82,0.00,,---,0.00,,VWS V14.01,2013-05-08 13:35:00,
2013-05-08 08:40:00,73.9,67.7,29.93,South,182,7.2,12.2,81,0.00,,---,0.00,,VWS V14.01,2013-05-08 13:40:00,
2013-05-08 08:45:00,73.5,67.7,29.95,SSE,165,4.2,12.2,82,0.00,,---,0.00,,VWS V14.01,2013-05-08 13:45:00,
2013-05-08 08:50:00,74.0,68.5,29.95,SE,142,10.2,13.2,83,0.00,,---,0.00,,VWS V14.01,2013-05-08 13:50:00,
2013-05-08 08:55:00,73.9,68.1,29.95,SSE,148,6.2,15.2,82,0.00,,---,0.00,,VWS V14.01,2013-05-08 13:55:00,
2013-05-08 09:00:00,73.7,67.5,29.95,SE,140,9.2,14.2,81,0.00,,---,0.00,,VWS V14.01,2013-05-08 14:00:00,
2013-05-08 09:05:00,73.9,67.7,29.95,SSE,162,8.2,14.2,81,0.00,,---,0.00,,VWS V14.01,2013-05-08 14:05:00,
2013-05-08 09:10:00,73.7,67.9,29.95,SSE,160,6.2,12.2,82,0.00,,---,0.00,,VWS V14.01,2013-05-08 14:10:00,
2013-05-08 09:15:00,73.9,68.1,29.95,SSE,148,5.2,12.2,82,0.00,,---,0.00,,VWS V14.01,2013-05-08 14:15:00,
2013-05-08 09:20:00,73.7,67.9,29.95,SSE,160,6.2,13.2,82,0.00,,---,0.00,,VWS V14.01,2013-05-08 14:20:00,
2013-05-08 09:25:00,74.0,68.5,29.95,SSE,165,4.2,11.2,83,0.00,,---,0.00,,VWS V14.01,2013-05-08 14:25:00,
2013-05-08 09:30:00,74.9,68.7,29.96,SSE,157,7.2,15.2,81,0.00,,---,0.00,,VWS V14.01,2013-05-08 14:30:00,
2013-05-08 09:35:00,75.1,68.2,29.96,SSE,149,5.2,13.2,79,0.00,,---,0.00,,VWS V14.01,2013-05-08 14:35:00,
2013-05-08 09:40:00,74.9,68.3,29.96,SSE,147,3.2,16.2,80,0.00,,---,0.00,,VWS V14.01,2013-05-08 14:40:00,
2013-05-08 09:45:00,74.4,67.5,29.96,SSE,151,8.2,13.2,79,0.00,,---,0.00,,VWS V14.01,2013-05-08 14:45:00,
2013-05-08 09:50:00,74.2,67.3,29.96,SSE,157,6.2,12.2,79,0.00,,---,0.00,,VWS V14.01,2013-05-08 14:50:00,
2013-05-08 09:55:00,74.2,66.9,29.96,SSE,157,13.2,14.2,78,0.00,,---,0.00,,VWS V14.01,2013-05-08 14:55:00,
2013-05-08 10:00:00,74.0,67.1,29.96,SSE,153,5.2,14.2,79,0.00,,---,0.00,,VWS V14.01,2013-05-08 15:00:00,
2013-05-08 10:05:00,74.9,67.9,29.96,SSE,159,11.2,12.2,79,0.00,,---,0.00,,VWS V14.01,2013-05-08 15:05:00,
2013-05-08 10:10:00,75.4,67.7,29.96,SSE,168,12.2,14.2,77,0.00,,---,0.00,,VWS V14.01,2013-05-08 15:10:00,
2013-05-08 10:15:00,75.8,68.1,29.96,SE,140,9.2,14.2,77,0.00,,---,0.00,,VWS V14.01,2013-05-08 15:15:00,
2013-05-08 10:20:00,75.8,67.3,29.96,SSE,163,11.2,15.2,75,0.00,,---,0.00,,VWS V14.01,2013-05-08 15:20:00,
2013-05-08 10:25:00,76.3,68.2,29.96,SSE,165,6.2,12.2,76,0.00,,---,0.00,,VWS V14.01,2013-05-08 15:25:00,
2013-05-08 10:30:00,76.7,67.8,29.95,SSE,160,17.2,17.2,74,0.00,,---,0.00,,VWS V14.01,2013-05-08 15:30:00,
2013-05-08 10:35:00,76.5,68.0,29.95,SE,142,13.2,16.2,75,0.00,,---,0.00,,VWS V14.01,2013-05-08 15:35:00,
2013-05-08 10:40:00,76.8,68.3,29.95,SE,136,11.2,17.2,75,0.00,,---,0.00,,VWS V14.01,2013-05-08 15:40:00,
2013-05-08 10:45:00,76.8,68.3,29.96,SE,139,11.2,16.2,75,0.00,,---,0.00,,VWS V14.01,2013-05-08 15:45:00,
2013-05-08 10:50:00,77.2,69.1,29.96,SSE,162,10.2,14.2,76,0.00,,---,0.00,,VWS V14.01,2013-05-08 15:50:00,
2013-05-08 10:55:00,76.7,67.8,29.96,SSE,149,8.2,17.2,74,0.00,,---,0.00,,VWS V14.01,2013-05-08 15:55:00,
2013-05-08 11:00:00,77.0,68.5,29.96,ESE,112,6.2,16.2,75,0.00,,---,0.00,,VWS V14.01,2013-05-08 16:00:00,
2013-05-08 11:05:00,76.8,67.9,29.96,SE,142,8.2,17.2,74,0.00,,---,0.00,,VWS V14.01,2013-05-08 16:05:00,
2013-05-08 11:10:00,77.4,68.5,29.96,SSE,153,11.2,16.2,74,0.00,,---,0.00,,VWS V14.01,2013-05-08 16:10:00,
2013-05-08 11:15:00,77.2,68.3,29.96,SE,129,10.2,18.2,74,0.00,,---,0.00,,VWS V14.01,2013-05-08 16:15:00,
2013-05-08 11:20:00,76.8,67.9,29.96,SE,145,11.2,17.2,74,0.00,,---,0.00,,VWS V14.01,2013-05-08 16:20:00,
2013-05-08 11:25:00,77.7,68.8,29.96,SE,140,11.2,17.2,74,0.00,,---,0.00,,VWS V14.01,2013-05-08 16:25:00,
2013-05-08 11:30:00,78.3,68.5,29.95,SE,126,14.2,16.2,72,0.00,,---,0.00,,VWS V14.01,2013-05-08 16:30:00,
2013-05-08 11:35:00,78.1,68.8,29.95,SE,145,12.2,17.2,73,0.00,,---,0.00,,VWS V14.01,2013-05-08 16:35:00,
2013-05-08 11:40:00,77.9,68.9,29.95,SE,140,7.2,15.2,74,0.00,,---,0.00,,VWS V14.01,2013-05-08 16:40:00,
2013-05-08 11:45:00,78.1,69.1,29.95,SE,132,10.2,18.2,74,0.00,,---,0.00,,VWS V14.01,2013-05-08 16:45:00,
2013-05-08 11:50:00,78.1,69.5,29.95,East,100,11.2,15.2,75,0.00,,---,0.00,,VWS V14.01,2013-05-08 16:50:00,
2013-05-08 11:55:00,77.9,69.3,29.95,SSE,160,13.2,15.2,75,0.00,,---,0.00,,VWS V14.01,2013-05-08 16:55:00,
2013-05-08 12:00:00,78.5,69.1,29.95,SSE,156,12.2,13.2,73,0.00,,---,0.00,,VWS V14.01,2013-05-08 17:00:00,
2013-05-08 12:05:00,78.6,69.6,29.95,ESE,122,8.2,15.2,74,0.00,,---,0.00,,VWS V14.01,2013-05-08 17:05:00,
2013-05-08 12:10:00,79.4,69.2,29.95,SE,142,12.2,15.2,71,0.00,,---,0.00,,VWS V14.01,2013-05-08 17:10:00,
2013-05-08 12:15:00,78.3,69.3,29.95,ESE,108,10.2,15.2,74,0.00,,---,0.00,,VWS V14.01,2013-05-08 17:15:00,
2013-05-08 12:20:00,78.3,69.3,29.95,SSE,152,16.2,16.2,74,0.00,,---,0.00,,VWS V14.01,2013-05-08 17:20:00,
2013-05-08 12:25:00,77.9,68.9,29.95,SE,127,9.2,17.2,74,0.00,,---,0.00,,VWS V14.01,2013-05-08 17:25:00,
2013-05-08 12:30:00,78.3,68.9,29.95,ESE,122,12.2,17.2,73,0.00,,---,0.00,,VWS V14.01,2013-05-08 17:30:00,
2013-05-08 12:35:00,78.3,68.9,29.95,SE,139,10.2,16.2,73,0.00,,---,0.00,,VWS V14.01,2013-05-08 17:35:00,
2013-05-08 12:40:00,78.5,69.1,29.95,SSE,150,12.2,16.2,73,0.00,,---,0.00,,VWS V14.01,2013-05-08 17:40:00,
2013-05-08 12:45:00,79.0,68.8,29.93,SSE,150,4.2,16.2,71,0.00,,---,0.00,,VWS V14.01,2013-05-08 17:45:00,
2013-05-08 12:50:00,79.2,69.4,29.93,ESE,115,12.2,16.2,72,0.00,,---,0.00,,VWS V14.01,2013-05-08 17:50:00,
2013-05-08 12:55:00,79.4,69.6,29.93,SE,128,11.2,16.2,72,0.00,,---,0.00,,VWS V14.01,2013-05-08 17:55:00,
2013-05-08 13:00:00,79.6,69.4,29.93,SSE,156,12.2,15.2,71,0.00,,---,0.00,,VWS V14.01,2013-05-08 18:00:00,
2013-05-08 13:05:00,79.2,69.4,29.93,SSE,155,11.2,15.2,72,0.00,,---,0.00,,VWS V14.01,2013-05-08 18:05:00,
2013-05-08 13:10:00,78.6,69.2,29.93,East,101,13.2,18.2,73,0.00,,---,0.00,,VWS V14.01,2013-05-08 18:10:00,
2013-05-08 13:15:00,79.0,69.6,29.93,SE,131,11.2,17.2,73,0.00,,---,0.00,,VWS V14.01,2013-05-08 18:15:00,
2013-05-08 13:20:00,79.2,69.4,29.93,SSE,160,15.2,15.2,72,0.00,,---,0.00,,VWS V14.01,2013-05-08 18:20:00,
2013-05-08 13:25:00,79.2,69.4,29.93,SSE,154,14.2,18.2,72,0.00,,---,0.00,,VWS V14.01,2013-05-08 18:25:00,
2013-05-08 13:30:00,78.6,69.2,29.92,SE,125,7.2,18.2,73,0.00,,---,0.00,,VWS V14.01,2013-05-08 18:30:00,
2013-05-08 13:35:00,79.0,69.2,29.92,SE,133,11.2,15.2,72,0.00,,---,0.00,,VWS V14.01,2013-05-08 18:35:00,
2013-05-08 13:40:00,79.0,69.2,29.92,SE,146,5.2,19.2,72,0.00,,---,0.00,,VWS V14.01,2013-05-08 18:40:00,
2013-05-08 13:45:00,78.6,68.8,29.92,ESE,111,8.2,17.2,72,0.00,,---,0.00,,VWS V14.01,2013-05-08 18:45:00,
2013-05-08 13:50:00,78.8,69.0,29.92,SE,144,9.2,16.2,72,0.00,,---,0.00,,VWS V14.01,2013-05-08 18:50:00,
2013-05-08 13:55:00,79.4,69.2,29.92,SE,140,7.2,17.2,71,0.00,,---,0.00,,VWS V14.01,2013-05-08 18:55:00,
2013-05-08 14:00:00,79.6,69.4,29.92,SSE,151,12.2,16.2,71,0.00,,---,0.00,,VWS V14.01,2013-05-08 19:00:00,
2013-05-08 14:05:00,79.4,68.8,29.92,SSE,165,15.2,16.2,70,0.00,,---,0.00,,VWS V14.01,2013-05-08 19:05:00,
2013-05-08 14:10:00,78.8,69.0,29.92,SE,124,11.2,16.2,72,0.00,,---,0.00,,VWS V14.01,2013-05-08 19:10:00,
2013-05-08 14:15:00,79.2,69.0,29.92,SSE,155,11.2,16.2,71,0.00,,---,0.00,,VWS V14.01,2013-05-08 19:15:00,
2013-05-08 14:20:00,79.2,68.6,29.91,SSE,148,11.2,16.2,70,0.00,,---,0.00,,VWS V14.01,2013-05-08 19:20:00,
2013-05-08 14:25:00,79.4,69.6,29.91,East,95,11.2,15.2,72,0.00,,---,0.00,,VWS V14.01,2013-05-08 19:25:00,
2013-05-08 14:30:00,79.8,69.6,29.91,SE,133,8.2,16.2,71,0.00,,---,0.00,,VWS V14.01,2013-05-08 19:30:00,
2013-05-08 14:35:00,79.6,69.8,29.90,SE,135,12.2,18.2,72,0.00,,---,0.00,,VWS V14.01,2013-05-08 19:35:00,
2013-05-08 14:40:00,79.4,69.6,29.90,SSE,160,8.2,20.2,72,0.00,,---,0.00,,VWS V14.01,2013-05-08 19:40:00,
2013-05-08 14:45:00,79.2,69.8,29.90,SE,136,8.2,20.2,73,0.00,,---,0.00,,VWS V14.01,2013-05-08 19:45:00,
2013-05-08 14:50:00,79.9,69.7,29.90,SE,140,7.2,17.2,71,0.00,,---,0.00,,VWS V14.01,2013-05-08 19:50:00,
2013-05-08 14:55:00,80.1,69.4,29.90,East,80,6.2,18.2,70,0.00,,---,0.00,,VWS V14.01,2013-05-08 19:55:00,
2013-05-08 15:00:00,79.8,70.4,29.90,SSE,159,11.2,15.2,73,0.00,,---,0.00,,VWS V14.01,2013-05-08 20:00:00,
2013-05-08 15:05:00,79.8,69.6,29.90,ESE,112,9.2,18.2,71,0.00,,---,0.00,,VWS V14.01,2013-05-08 20:05:00,
2013-05-08 15:10:00,79.2,69.4,29.90,ESE,102,7.2,16.2,72,0.00,,---,0.00,,VWS V14.01,2013-05-08 20:10:00,
2013-05-08 15:15:00,79.4,69.6,29.90,SSE,150,15.2,17.2,72,0.00,,---,0.00,,VWS V14.01,2013-05-08 20:15:00,
2013-05-08 15:20:00,79.0,70.0,29.89,ESE,121,12.2,19.2,74,0.00,,---,0.00,,VWS V14.01,2013-05-08 20:20:00,
2013-05-08 15:25:00,79.6,70.2,29.89,ESE,123,7.2,17.2,73,0.00,,---,0.00,,VWS V14.01,2013-05-08 20:25:00,
2013-05-08 15:30:00,79.4,69.6,29.89,SE,132,11.2,18.2,72,0.00,,---,0.00,,VWS V14.01,2013-05-08 20:30:00,
2013-05-08 15:35:00,78.6,69.2,29.89,SE,142,6.2,19.2,73,0.00,,---,0.00,,VWS V14.01,2013-05-08 20:35:00,
2013-05-08 15:40:00,79.0,69.6,29.89,SE,124,14.2,18.2,73,0.00,,---,0.00,,VWS V14.01,2013-05-08 20:40:00,
2013-05-08 15:45:00,78.8,69.8,29.89,East,84,7.2,17.2,74,0.00,,---,0.00,,VWS V14.01,2013-05-08 20:45:00,
2013-05-08 15:50:00,80.1,70.3,29.88,SE,138,8.2,14.2,72,0.00,,---,0.00,,VWS V14.01,2013-05-08 20:50:00,
2013-05-08 15:55:00,80.1,69.4,29.88,SSE,148,15.2,17.2,70,0.00,,---,0.00,,VWS V14.01,2013-05-08 20:55:00,
2013-05-08 16:00:00,79.8,70.0,29.88,ESE,109,8.2,15.2,72,0.00,,---,0.00,,VWS V14.01,2013-05-08 21:00:00,
2013-05-08 16:05:00,79.4,70.0,29.87,SSE,159,10.2,19.2,73,0.00,,---,0.00,,VWS V14.01,2013-05-08 21:05:00,
2013-05-08 16:10:00,79.4,70.4,29.87,ESE,106,10.2,17.2,74,0.00,,---,0.00,,VWS V14.01,2013-05-08 21:10:00,
2013-05-08 16:15:00,79.4,70.0,29.87,East,88,10.2,16.2,73,0.00,,---,0.00,,VWS V14.01,2013-05-08 21:15:00,
2013-05-08 16:20:00,79.6,70.2,29.87,SE,139,12.2,20.2,73,0.00,,---,0.00,,VWS V14.01,2013-05-08 21:20:00,
2013-05-08 16:25:00,79.0,70.0,29.87,SE,142,14.2,17.2,74,0.00,,---,0.00,,VWS V14.01,2013-05-08 21:25:00,
2013-05-08 16:30:00,79.4,70.4,29.87,SE,136,16.2,16.2,74,0.00,,---,0.00,,VWS V14.01,2013-05-08 21:30:00,
2013-05-08 16:35:00,79.2,70.2,29.87,ESE,117,12.2,21.2,74,0.00,,---,0.00,,VWS V14.01,2013-05-08 21:35:00,
2013-05-08 16:40:00,79.4,70.4,29.87,SE,146,16.2,17.2,74,0.00,,---,0.00,,VWS V14.01,2013-05-08 21:40:00,
2013-05-08 16:45:00,78.8,70.6,29.87,SE,146,7.2,17.2,76,0.00,,---,0.00,,VWS V14.01,2013-05-08 21:45:00,
2013-05-08 16:50:00,78.8,69.8,29.87,ESE,120,10.2,16.2,74,0.00,,---,0.00,,VWS V14.01,2013-05-08 21:50:00,
2013-05-08 16:55:00,78.5,70.3,29.87,East,80,11.2,18.2,76,0.00,,---,0.00,,VWS V14.01,2013-05-08 21:55:00,
2013-05-08 17:00:00,78.3,70.5,29.87,ESE,115,11.2,16.2,77,0.00,,---,0.00,,VWS V14.01,2013-05-08 22:00:00,
2013-05-08 17:05:00,78.3,70.5,29.87,ESE,123,13.2,17.2,77,0.00,,---,0.00,,VWS V14.01,2013-05-08 22:05:00,
2013-05-08 17:10:00,78.8,70.6,29.87,SE,126,10.2,19.2,76,0.00,,---,0.00,,VWS V14.01,2013-05-08 22:10:00,
2013-05-08 17:15:00,78.6,70.0,29.87,SE,127,14.2,17.2,75,0.00,,---,0.00,,VWS V14.01,2013-05-08 22:15:00,
2013-05-08 17:20:00,78.3,70.1,29.87,ESE,123,7.2,20.2,76,0.00,,---,0.00,,VWS V14.01,2013-05-08 22:20:00,
2013-05-08 17:25:00,78.3,70.1,29.87,SSE,153,13.2,19.2,76,0.00,,---,0.00,,VWS V14.01,2013-05-08 22:25:00,
2013-05-08 17:30:00,78.3,70.1,29.87,East,100,9.2,18.2,76,0.00,,---,0.00,,VWS V14.01,2013-05-08 22:30:00,
2013-05-08 17:35:00,78.3,70.5,29.86,ESE,115,6.2,17.2,77,0.00,,---,0.00,,VWS V14.01,2013-05-08 22:35:00,
2013-05-08 17:40:00,77.9,70.1,29.86,SE,136,7.2,17.2,77,0.00,,---,0.00,,VWS V14.01,2013-05-08 22:40:00,
2013-05-08 17:45:00,77.4,70.0,29.86,ESE,119,10.2,19.2,78,0.00,,---,0.00,,VWS V14.01,2013-05-08 22:45:00,
2013-05-08 17:50:00,77.4,70.4,29.86,SE,126,10.2,17.2,79,0.00,,---,0.00,,VWS V14.01,2013-05-08 22:50:00,
2013-05-08 17:55:00,77.2,70.2,29.86,East,98,10.2,22.2,79,0.00,,---,0.00,,VWS V14.01,2013-05-08 22:55:00,
2013-05-08 18:00:00,77.2,70.6,29.86,SSE,154,10.2,15.2,80,0.00,,---,0.00,,VWS V14.01,2013-05-08 23:00:00,
2013-05-08 18:05:00,76.8,70.2,29.86,ESE,110,11.2,19.2,80,0.00,,---,0.00,,VWS V14.01,2013-05-08 23:05:00,
2013-05-08 18:10:00,76.8,70.5,29.86,ESE,107,14.2,16.2,81,0.00,,---,0.00,,VWS V14.01,2013-05-08 23:10:00,
2013-05-08 18:15:00,76.7,70.4,29.86,ESE,103,12.2,16.2,81,0.00,,---,0.00,,VWS V14.01,2013-05-08 23:15:00,
2013-05-08 18:20:00,76.5,70.6,29.86,SE,124,13.2,18.2,82,0.00,,---,0.00,,VWS V14.01,2013-05-08 23:20:00,
2013-05-08 18:25:00,76.3,70.8,29.86,SE,130,8.2,19.2,83,0.00,,---,0.00,,VWS V14.01,2013-05-08 23:25:00,
2013-05-08 18:30:00,76.0,70.5,29.85,East,101,8.2,20.2,83,0.00,,---,0.00,,VWS V14.01,2013-05-08 23:30:00,
2013-05-08 18:35:00,75.8,70.6,29.85,ESE,116,15.2,18.2,84,0.00,,---,0.00,,VWS V14.01,2013-05-08 23:35:00,
2013-05-08 18:40:00,75.6,70.4,29.85,ESE,116,5.2,14.2,84,0.00,,---,0.00,,VWS V14.01,2013-05-08 23:40:00,
2013-05-08 18:45:00,75.8,70.6,29.85,ESE,121,15.2,18.2,84,0.00,,---,0.00,,VWS V14.01,2013-05-08 23:45:00,
2013-05-08 18:50:00,75.8,70.6,29.85,ESE,117,10.2,17.2,84,0.00,,---,0.00,,VWS V14.01,2013-05-08 23:50:00,
2013-05-08 18:55:00,75.4,70.2,29.85,SE,135,12.2,18.2,84,0.00,,---,0.00,,VWS V14.01,2013-05-08 23:55:00,
2013-05-08 19:00:00,75.4,70.6,29.85,SE,128,15.2,16.2,85,0.00,,---,0.00,,VWS V14.01,2013-05-09 00:00:00,
2013-05-08 19:05:00,75.3,70.5,29.86,SE,146,16.2,18.2,85,0.00,,---,0.00,,VWS V14.01,2013-05-09 00:05:00,
2013-05-08 19:10:00,75.3,70.5,29.86,SSE,157,11.2,17.2,85,0.00,,---,0.00,,VWS V14.01,2013-05-09 00:10:00,
2013-05-08 19:15:00,75.3,70.8,29.86,ESE,106,5.2,17.2,86,0.00,,---,0.00,,VWS V14.01,2013-05-09 00:15:00,
2013-05-08 19:20:00,75.1,70.6,29.86,SE,134,7.2,17.2,86,0.00,,---,0.00,,VWS V14.01,2013-05-09 00:20:00,
2013-05-08 19:25:00,75.1,70.6,29.86,ESE,117,9.2,17.2,86,0.00,,---,0.00,,VWS V14.01,2013-05-09 00:25:00,
2013-05-08 19:30:00,74.9,70.4,29.86,East,84,10.2,14.2,86,0.00,,---,0.00,,VWS V14.01,2013-05-09 00:30:00,
2013-05-08 19:35:00,74.9,70.4,29.86,SE,134,13.2,15.2,86,0.00,,---,0.00,,VWS V14.01,2013-05-09 00:35:00,
2013-05-08 19:40:00,74.7,70.6,29.86,ESE,114,10.2,16.2,87,0.00,,---,0.00,,VWS V14.01,2013-05-09 00:40:00,
2013-05-08 19:45:00,74.6,70.5,29.86,SE,124,10.2,15.2,87,0.00,,---,0.00,,VWS V14.01,2013-05-09 00:45:00,
2013-05-08 19:50:00,74.4,70.3,29.86,ESE,111,14.2,19.2,87,0.00,,---,0.00,,VWS V14.01,2013-05-09 00:50:00,
2013-05-08 19:55:00,74.6,70.5,29.86,ESE,111,12.2,15.2,87,0.00,,---,0.00,,VWS V14.01,2013-05-09 00:55:00,
2013-05-08 20:00:00,74.6,70.5,29.86,ESE,105,7.2,16.2,87,0.00,,---,0.00,,VWS V14.01,2013-05-09 01:00:00,
2013-05-08 20:05:00,74.4,70.3,29.86,ESE,113,5.2,16.2,87,0.00,,---,0.00,,VWS V14.01,2013-05-09 01:05:00,
2013-05-08 20:10:00,74.2,70.1,29.86,SSE,148,13.2,16.2,87,0.00,,---,0.00,,VWS V14.01,2013-05-09 01:10:00,
2013-05-08 20:15:00,74.0,70.2,29.86,SE,128,13.2,16.2,88,0.00,,---,0.00,,VWS V14.01,2013-05-09 01:15:00,
2013-05-08 20:20:00,74.0,70.2,29.86,SE,140,10.2,16.2,88,0.00,,---,0.00,,VWS V14.01,2013-05-09 01:20:00,
2013-05-08 20:25:00,74.0,70.6,29.86,SSE,148,15.2,15.2,89,0.00,,---,0.00,,VWS V14.01,2013-05-09 01:25:00,
2013-05-08 20:30:00,73.9,70.5,29.86,SE,127,9.2,17.2,89,0.00,,---,0.00,,VWS V14.01,2013-05-09 01:30:00,
2013-05-08 20:35:00,73.9,70.5,29.87,ESE,115,6.2,15.2,89,0.00,,---,0.00,,VWS V14.01,2013-05-09 01:35:00,
2013-05-08 20:40:00,73.9,70.8,29.87,SSE,153,8.2,14.2,90,0.00,,---,0.00,,VWS V14.01,2013-05-09 01:40:00,
2013-05-08 20:45:00,73.9,70.8,29.87,SSE,147,12.2,16.2,90,0.00,,---,0.00,,VWS V14.01,2013-05-09 01:45:00,
2013-05-08 20:50:00,73.9,70.8,29.87,ESE,116,6.2,14.2,90,0.00,,---,0.00,,VWS V14.01,2013-05-09 01:50:00,
2013-05-08 20:55:00,73.9,70.8,29.87,SE,127,6.2,15.2,90,0.00,,---,0.00,,VWS V14.01,2013-05-09 01:55:00,
2013-05-08 21:00:00,73.7,70.9,29.87,ESE,119,2.2,11.2,91,0.00,,---,0.00,,VWS V14.01,2013-05-09 02:00:00,
2013-05-08 21:05:00,73.9,71.1,29.87,SE,137,11.2,16.2,91,0.00,,---,0.00,,VWS V14.01,2013-05-09 02:05:00,
2013-05-08 21:10:00,73.9,71.1,29.87,East,98,10.2,14.2,91,0.00,,---,0.00,,VWS V14.01,2013-05-09 02:10:00,
2013-05-08 21:15:00,74.0,70.9,29.87,SSE,151,8.2,13.2,90,0.00,,---,0.00,,VWS V14.01,2013-05-09 02:15:00,
2013-05-08 21:20:00,74.0,70.9,29.87,ESE,115,7.2,14.2,90,0.00,,---,0.00,,VWS V14.01,2013-05-09 02:20:00,
2013-05-08 21:25:00,73.9,71.1,29.87,SSE,153,6.2,13.2,91,0.00,,---,0.00,,VWS V14.01,2013-05-09 02:25:00,
2013-05-08 21:30:00,73.7,70.9,29.87,ESE,118,12.2,13.2,91,0.00,,---,0.00,,VWS V14.01,2013-05-09 02:30:00,
2013-05-08 21:35:00,73.7,70.9,29.88,ESE,123,5.2,15.2,91,0.00,,---,0.00,,VWS V14.01,2013-05-09 02:35:00,
2013-05-08 21:40:00,73.7,70.9,29.88,SSE,149,6.2,15.2,91,0.00,,---,0.00,,VWS V14.01,2013-05-09 02:40:00,
2013-05-08 21:45:00,73.7,71.2,29.88,SE,134,12.2,14.2,92,0.00,,---,0.00,,VWS V14.01,2013-05-09 02:45:00,
2013-05-08 21:50:00,73.7,71.2,29.88,SE,129,5.2,15.2,92,0.00,,---,0.00,,VWS V14.01,2013-05-09 02:50:00,
2013-05-08 21:55:00,73.7,71.2,29.88,East,92,10.2,17.2,92,0.00,,---,0.00,,VWS V14.01,2013-05-09 02:55:00,
2013-05-08 22:00:00,73.7,71.2,29.88,ESE,123,5.2,14.2,92,0.00,,---,0.00,,VWS V14.01,2013-05-09 03:00:00,
2013-05-08 22:05:00,73.5,71.0,29.88,SE,127,9.2,16.2,92,0.00,,---,0.00,,VWS V14.01,2013-05-09 03:05:00,
2013-05-08 22:10:00,73.5,71.0,29.88,SSE,151,10.2,17.2,92,0.00,,---,0.00,,VWS V14.01,2013-05-09 03:10:00,
2013-05-08 22:15:00,73.5,71.0,29.88,SE,129,10.2,16.2,92,0.00,,---,0.00,,VWS V14.01,2013-05-09 03:15:00,
2013-05-08 22:20:00,73.5,71.0,29.88,SE,135,8.2,18.2,92,0.00,,---,0.00,,VWS V14.01,2013-05-09 03:20:00,
2013-05-08 22:25:00,73.5,71.0,29.88,SSE,153,13.2,17.2,92,0.00,,---,0.00,,VWS V14.01,2013-05-09 03:25:00,
2013-05-08 22:30:00,73.5,71.0,29.88,SE,135,18.2,18.2,92,0.00,,---,0.00,,VWS V14.01,2013-05-09 03:30:00,
2013-05-08 22:35:00,73.5,71.0,29.88,SSE,153,9.2,16.2,92,0.00,,---,0.00,,VWS V14.01,2013-05-09 03:35:00,
2013-05-08 22:40:00,73.5,71.0,29.88,SE,134,13.2,16.2,92,0.00,,---,0.00,,VWS V14.01,2013-05-09 03:40:00,
2013-05-08 22:45:00,73.5,71.0,29.88,SE,132,14.2,16.2,92,0.00,,---,0.00,,VWS V14.01,2013-05-09 03:45:00,
2013-05-08 22:50:00,73.5,71.0,29.88,SE,146,10.2,17.2,92,0.00,,---,0.00,,VWS V14.01,2013-05-09 03:50:00,
2013-05-08 22:55:00,73.5,71.0,29.88,SE,136,10.2,19.2,92,0.00,,---,0.00,,VWS V14.01,2013-05-09 03:55:00,
2013-05-08 23:00:00,73.5,71.0,29.88,SE,144,15.2,15.2,92,0.00,,---,0.00,,VWS V14.01,2013-05-09 04:00:00,
2013-05-08 23:01:00,73.3,70.8,29.88,SSE,149,15.2,16.2,92,0.00,,---,0.00,,VWS V14.01,2013-05-09 04:01:00,
2013-05-08 23:05:00,73.3,70.8,29.88,SE,140,12.2,17.2,92,0.00,,---,0.00,0.00,VWS V14.01,2013-05-09 04:05:00,
2013-05-08 23:06:00,73.3,70.8,29.88,SE,140,12.2,17.2,92,0.00,,---,0.00,,VWS V14.01,2013-05-09 04:06:00,
2013-05-08 23:10:00,73.3,71.2,29.88,SE,136,15.2,15.2,93,0.00,,---,0.00,0.00,VWS V14.01,2013-05-09 04:10:00,
2013-05-08 23:11:00,73.3,71.2,29.88,SE,136,15.2,15.2,93,0.00,,---,0.00,,VWS V14.01,2013-05-09 04:11:00,
2013-05-08 23:15:00,73.2,71.1,29.88,SSE,153,12.2,19.2,93,0.00,,---,0.00,0.00,VWS V14.01,2013-05-09 04:15:00,
2013-05-08 23:16:00,73.2,71.1,29.88,SSE,153,12.2,19.2,93,0.00,,---,0.00,,VWS V14.01,2013-05-09 04:16:00,
2013-05-08 23:20:00,73.2,71.1,29.88,ESE,113,11.2,18.2,93,0.00,,---,0.00,0.00,VWS V14.01,2013-05-09 04:20:00,
2013-05-08 23:21:00,73.2,71.1,29.88,ESE,113,11.2,18.2,93,0.00,,---,0.00,,VWS V14.01,2013-05-09 04:21:00,
2013-05-08 23:25:00,73.2,71.1,29.88,SE,136,14.2,15.2,93,0.00,,---,0.00,0.00,VWS V14.01,2013-05-09 04:25:00,
2013-05-08 23:26:00,73.2,71.1,29.88,ESE,120,11.2,15.2,93,0.00,,---,0.00,,VWS V14.01,2013-05-09 04:26:00,
2013-05-08 23:30:00,73.2,71.1,29.88,SSE,150,4.2,18.2,93,0.00,,---,0.00,0.00,VWS V14.01,2013-05-09 04:30:00,
2013-05-08 23:31:00,73.2,71.1,29.88,SSE,150,4.2,18.2,93,0.00,,---,0.00,,VWS V14.01,2013-05-09 04:31:00,
2013-05-08 23:35:00,73.2,71.1,29.88,ESE,103,4.2,16.2,93,0.00,,---,0.00,0.00,VWS V14.01,2013-05-09 04:35:00,
2013-05-08 23:36:00,73.2,71.1,29.88,ESE,103,4.2,16.2,93,0.00,,---,0.00,,VWS V14.01,2013-05-09 04:36:00,
2013-05-08 23:40:00,73.2,71.1,29.88,SE,146,12.2,15.2,93,0.00,,---,0.00,0.00,VWS V14.01,2013-05-09 04:40:00,
2013-05-08 23:41:00,73.2,71.1,29.88,SE,146,12.2,15.2,93,0.00,,---,0.00,,VWS V14.01,2013-05-09 04:41:00,
2013-05-08 23:45:00,73.2,71.1,29.89,SSE,148,13.2,18.2,93,0.00,,---,0.00,0.00,VWS V14.01,2013-05-09 04:45:00,
2013-05-08 23:46:00,73.2,71.1,29.89,SSE,148,13.2,18.2,93,0.00,,---,0.00,,VWS V14.01,2013-05-09 04:46:00,
2013-05-08 23:50:00,73.3,71.2,29.89,SE,138,4.2,15.2,93,0.00,,---,0.00,0.00,VWS V14.01,2013-05-09 04:50:00,
2013-05-08 23:51:00,73.3,71.2,29.89,SE,138,7.2,15.2,93,0.00,,---,0.00,,VWS V14.01,2013-05-09 04:51:00,
2013-05-08 23:55:00,73.2,71.1,29.89,SE,135,4.2,15.2,93,0.00,,---,0.00,0.00,VWS V14.01,2013-05-09 04:55:00,
2013-05-08 23:56:00,73.2,71.1,29.89,SE,135,4.2,15.2,93,0.00,,---,0.00,,VWS V14.01,2013-05-09 04:56:00,